Time;durP1;ratioP1;P1;durP2;ratioP2;P2;SDS_P1;SDS_P2;PMS_P1;PMS_P2;Temp;Humidity;BMP_temperature;BMP_pressure;BME280_temperature;BME280_humidity;BME280_pressure;Samples;Min_cycle;Max_cycle;Signal;HPM_P1;HPM_P2
2023/09/20 00:00:32;;;;;;;11.90;5.90;;;;;;;15.07;100.00;100165.41;5055658;28;20029;-68
2023/09/20 00:02:59;;;;;;;8.88;5.47;;;;;;;14.81;100.00;100131.38;5056298;28;20088;-67
2023/09/20 00:05:25;;;;;;;8.00;5.53;;;;;;;14.80;100.00;100141.25;5055755;28;20460;-70
2023/09/20 00:07:50;;;;;;;8.07;5.83;;;;;;;14.93;100.00;100161.88;5054957;28;20400;-68
2023/09/20 00:10:18;;;;;;;6.47;5.10;;;;;;;14.83;100.00;100151.56;5054558;28;20063;-68
2023/09/20 00:12:45;;;;;;;;;;;;;;;14.86;100.00;100169.94;5056304;28;20037;-69
2023/09/20 00:15:11;;;;;;;6.63;4.80;;;;;;;14.70;100.00;100148.03;5055968;28;19916;-68
2023/09/20 00:17:37;;;;;;;7.57;5.07;;;;;;;14.68;100.00;100158.13;5057389;28;20078;-69
2023/09/20 00:20:12;;;;;;;6.93;4.57;;;;;;;14.73;100.00;100174.44;5056465;28;20060;-69
2023/09/20 00:22:42;;;;;;;7.10;5.40;;;;;;;14.71;100.00;100179.16;5057744;28;20029;-70
2023/09/20 00:25:12;;;;;;;5.60;4.30;;;;;;;14.41;100.00;100136.63;5056287;28;20037;-68
2023/09/20 00:27:39;;;;;;;5.23;4.57;;;;;;;14.57;100.00;100167.63;5055739;28;20032;-68
2023/09/20 00:30:15;;;;;;;7.37;4.67;;;;;;;14.51;100.00;100163.91;5054872;28;20025;-69
2023/09/20 00:32:42;;;;;;;6.57;4.50;;;;;;;14.47;100.00;100164.50;5054999;28;20099;-69
2023/09/20 00:35:14;;;;;;;5.97;4.72;;;;;;;14.48;100.00;100168.84;5055587;28;20036;-70
2023/09/20 00:37:47;;;;;;;6.23;4.63;;;;;;;14.41;100.00;100163.41;5055512;28;20029;-68
2023/09/20 00:40:21;;;;;;;7.33;4.30;;;;;;;14.47;100.00;100184.09;5055379;28;20025;-67
2023/09/20 00:42:49;;;;;;;7.20;5.03;;;;;;;14.43;100.00;100177.47;5054981;28;20348;-68
2023/09/20 00:45:15;;;;;;;9.83;4.93;;;;;;;14.40;100.00;100172.47;5055066;28;20025;-68
2023/09/20 00:47:57;;;;;;;10.07;5.13;;;;;;;14.38;100.00;100163.81;5055014;28;20064;-69
2023/09/20 00:50:29;;;;;;;7.30;4.63;;;;;;;14.38;100.00;100169.16;5055243;28;20104;-68
2023/09/20 00:52:56;;;;;;;7.47;5.73;;;;;;;14.39;100.00;100175.34;5055298;28;20120;-69
2023/09/20 00:55:25;;;;;;;9.00;4.93;;;;;;;14.37;100.00;100175.56;5054779;28;20145;-68
2023/09/20 00:57:53;;;;;;;9.23;5.17;;;;;;;14.30;100.00;100161.31;5055144;28;20037;-69
2023/09/20 01:00:27;;;;;;;8.43;5.00;;;;;;;14.27;100.00;100167.09;5055922;28;20033;-67
2023/09/20 01:02:55;;;;;;;6.57;4.70;;;;;;;14.29;100.00;100170.38;5056958;28;20132;-69
2023/09/20 01:05:22;;;;;;;11.07;4.57;;;;;;;14.26;100.00;100160.09;5056844;28;20116;-67
2023/09/20 01:07:50;;;;;;;8.80;5.10;;;;;;;14.31;100.00;100173.69;5055483;28;20078;-68
2023/09/20 01:10:19;;;;;;;7.22;4.70;;;;;;;14.27;100.00;100173.28;5057474;28;20219;-68
2023/09/20 01:12:44;;;;;;;8.70;5.10;;;;;;;14.17;100.00;100153.25;5058303;28;20055;-68
2023/09/20 01:15:10;;;;;;;8.97;4.50;;;;;;;13.94;100.00;100122.28;5058434;28;20120;-67
2023/09/20 01:17:44;;;;;;;7.03;6.30;;;;;;;14.21;100.00;100171.41;5056251;28;20032;-68
2023/09/20 01:20:12;;;;;;;8.20;4.60;;;;;;;14.11;100.00;100157.53;5057663;28;20033;-68
2023/09/20 01:22:38;;;;;;;9.82;4.85;;;;;;;14.13;100.00;100165.38;5056828;28;20029;-67
2023/09/20 01:25:07;;;;;;;6.67;4.20;;;;;;;14.00;100.00;100159.97;5054425;28;20029;-68
2023/09/20 01:27:35;;;;;;;7.47;3.77;;;;;;;14.04;100.00;100169.25;5054046;28;20476;-68
2023/09/20 01:30:02;;;;;;;6.72;5.25;;;;;;;13.90;100.00;100153.16;5053897;28;20075;-68
2023/09/20 01:32:30;;;;;;;6.87;4.60;;;;;;;13.96;100.00;100164.91;5054057;28;20052;-67
2023/09/20 01:34:56;;;;;;;11.93;4.97;;;;;;;13.87;100.00;100155.38;5053766;28;20045;-67
2023/09/20 01:37:21;;;;;;;10.33;4.97;;;;;;;13.99;100.00;100166.34;5054149;28;20044;-69
2023/09/20 01:39:47;;;;;;;9.00;4.37;;;;;;;14.01;100.00;100177.69;5053959;28;20117;-67
2023/09/20 01:42:15;;;;;;;11.03;4.70;;;;;;;13.99;100.00;100169.84;5053730;28;20426;-67
2023/09/20 01:44:41;;;;;;;7.78;4.22;;;;;;;13.99;100.00;100179.75;5052468;28;20032;-68
2023/09/20 01:47:07;;;;;;;10.43;4.10;;;;;;;13.88;100.00;100171.25;5053501;28;20033;-68
2023/09/20 01:49:34;;;;;;;11.90;4.63;;;;;;;13.85;100.00;100168.94;5053636;28;20538;-67
2023/09/20 01:52:01;;;;;;;11.35;5.15;;;;;;;13.88;100.00;100179.28;5053898;28;20078;-68
2023/09/20 01:54:30;;;;;;;9.03;4.73;;;;;;;13.82;100.00;100171.19;5053679;28;20033;-67
2023/09/20 01:56:55;;;;;;;8.70;4.33;;;;;;;13.71;100.00;100156.53;5053570;28;20491;-68
2023/09/20 01:59:23;;;;;;;7.23;4.67;;;;;;;13.71;100.00;100155.72;5053440;28;20029;-67
2023/09/20 02:01:50;;;;;;;9.30;4.20;;;;;;;13.76;100.00;100164.78;5053404;28;20024;-68
2023/09/20 02:04:15;;;;;;;13.90;4.70;;;;;;;13.78;100.00;100165.41;5053487;28;20040;-68
2023/09/20 02:06:41;;;;;;;6.87;3.93;;;;;;;13.75;100.00;100159.66;5053339;28;20021;-67
2023/09/20 02:09:08;;;;;;;9.97;4.70;;;;;;;13.74;100.00;100156.13;5053433;28;20025;-67
2023/09/20 02:11:34;;;;;;;8.57;4.17;;;;;;;13.77;100.00;100166.44;5053615;28;20075;-68
2023/09/20 02:14:00;;;;;;;13.13;5.83;;;;;;;13.66;100.00;100156.31;5055119;28;20025;-68
2023/09/20 02:16:26;;;;;;;6.87;4.57;;;;;;;13.59;100.00;100152.78;5055850;28;20115;-67
2023/09/20 02:18:52;;;;;;;9.30;4.47;;;;;;;13.62;100.00;100152.38;5053987;28;20067;-68
2023/09/20 02:21:19;;;;;;;6.90;4.10;;;;;;;13.77;100.00;100171.81;5052863;28;20029;-69
2023/09/20 02:23:44;;;;;;;7.97;4.07;;;;;;;13.72;100.00;100168.91;5053122;28;20037;-67
2023/09/20 02:26:12;;;;;;;8.43;4.60;;;;;;;13.63;100.00;100148.69;5053499;28;20414;-67
2023/09/20 02:28:38;;;;;;;18.88;5.43;;;;;;;13.82;100.00;100172.03;5053460;28;20036;-68
2023/09/20 02:31:04;;;;;;;11.03;4.50;;;;;;;13.63;100.00;100140.66;5052759;28;20091;-70
2023/09/20 02:33:30;;;;;;;8.60;3.77;;;;;;;13.84;100.00;100163.81;5052793;28;20376;-67
2023/09/20 02:35:57;;;;;;;7.47;4.40;;;;;;;13.82;100.00;100172.03;5052988;28;20349;-67
2023/09/20 02:38:22;;;;;;;10.73;5.10;;;;;;;13.79;100.00;100155.53;5052899;28;20056;-68
2023/09/20 02:40:50;;;;;;;15.53;4.13;;;;;;;13.74;100.00;100145.44;5052687;28;20468;-67
2023/09/20 02:43:16;;;;;;;14.30;4.80;;;;;;;13.80;100.00;100147.31;5052794;28;20139;-67
2023/09/20 02:45:45;;;;;;;7.60;3.97;;;;;;;13.71;100.00;100145.84;5052448;28;20099;-67
2023/09/20 02:48:12;;;;;;;8.73;4.03;;;;;;;13.82;100.00;100153.28;5052747;28;20028;-68
2023/09/20 02:50:41;;;;;;;8.80;4.47;;;;;;;13.64;100.00;100126.25;5051176;28;20024;-69
2023/09/20 02:53:07;;;;;;;11.60;5.00;;;;;;;13.67;100.00;100122.34;5052485;28;20032;-68
2023/09/20 02:55:34;;;;;;;11.47;4.53;;;;;;;13.76;100.00;100140.72;5034443;28;20041;-68
2023/09/20 02:57:59;;;;;;;7.60;3.50;;;;;;;13.70;100.00;100127.31;5052362;28;20036;-68
2023/09/20 03:00:31;;;;;;;12.33;4.60;;;;;;;13.68;100.00;100113.28;5051187;28;20029;-67
2023/09/20 03:03:02;;;;;;;9.93;4.87;;;;;;;13.76;100.00;100121.16;5051131;28;20033;-67
2023/09/20 03:05:33;;;;;;;10.83;3.80;;;;;;;13.48;100.00;100070.38;5051161;28;20041;-68
2023/09/20 03:08:04;;;;;;;8.87;5.13;;;;;;;13.68;100.00;100108.78;5052220;28;20033;-67
2023/09/20 03:10:31;;;;;;;10.17;4.10;;;;;;;13.69;100.00;100105.06;5052075;28;20028;-67
2023/09/20 03:13:00;;;;;;;8.43;3.53;;;;;;;13.67;100.00;100120.50;5052553;28;20025;-68
2023/09/20 03:15:28;;;;;;;11.23;5.00;;;;;;;13.59;100.00;100102.78;5051024;28;20097;-67
2023/09/20 03:18:05;;;;;;;10.15;3.45;;;;;;;13.44;100.00;100061.94;5052153;28;20044;-68
2023/09/20 03:20:34;;;;;;;7.37;3.40;;;;;;;13.78;100.00;100111.06;5052178;28;20033;-68
2023/09/20 03:23:03;;;;;;;8.15;4.38;;;;;;;13.78;100.00;100098.50;5052072;28;20037;-69
2023/09/20 03:25:29;;;;;;;6.50;3.63;;;;;;;13.95;100.00;100099.00;5052171;28;20037;-67
2023/09/20 03:27:55;;;;;;;8.07;3.50;;;;;;;13.98;100.00;100103.13;5052087;28;20044;-67
2023/09/20 03:30:21;;;;;;;8.13;3.57;;;;;;;14.04;100.00;100111.19;5051733;28;20477;-69
2023/09/20 03:32:50;;;;;;;7.63;4.03;;;;;;;14.01;100.00;100110.75;5051689;28;20045;-68
2023/09/20 03:35:19;;;;;;;5.53;3.33;;;;;;;13.94;100.00;100106.22;5050687;28;20033;-67
2023/09/20 03:37:46;;;;;;;6.37;3.30;;;;;;;13.97;100.00;100117.53;5051617;28;20029;-67
2023/09/20 03:40:17;;;;;;;5.30;3.37;;;;;;;13.93;100.00;100106.41;5051825;28;20033;-68
2023/09/20 03:42:44;;;;;;;6.37;4.23;;;;;;;13.76;100.00;100089.88;5050713;28;20115;-67
2023/09/20 03:45:11;;;;;;;12.80;4.20;;;;;;;13.64;100.00;100083.44;5052052;28;20043;-67
2023/09/20 03:47:37;;;;;;;8.47;3.70;;;;;;;13.67;100.00;100093.75;5051883;28;20021;-67
2023/09/20 03:50:04;;;;;;;8.37;3.73;;;;;;;13.68;100.00;100102.59;5050510;28;20108;-68
2023/09/20 03:52:30;;;;;;;10.10;3.40;;;;;;;13.53;100.00;100089.34;5050295;28;20070;-67
2023/09/20 03:54:57;;;;;;;6.40;3.30;;;;;;;13.58;100.00;100102.94;5051591;28;20029;-68
2023/09/20 03:57:25;;;;;;;9.32;4.28;;;;;;;13.46;100.00;100086.63;5051664;28;20033;-68
2023/09/20 03:59:52;;;;;;;6.50;3.57;;;;;;;13.48;100.00;100086.44;5051724;28;20456;-66
2023/09/20 04:02:18;;;;;;;13.50;4.03;;;;;;;13.67;100.00;100112.47;5051960;28;20029;-69
2023/09/20 04:04:44;;;;;;;9.93;3.97;;;;;;;13.67;100.00;100109.78;5051621;28;20029;-69
2023/09/20 04:07:09;;;;;;;8.20;3.97;;;;;;;13.62;100.00;100097.03;5051703;28;20106;-68
2023/09/20 04:09:35;;;;;;;7.00;3.50;;;;;;;13.59;100.00;100096.59;5050426;28;20565;-68
2023/09/20 04:12:05;;;;;;;8.70;5.00;;;;;;;13.61;100.00;100091.88;5051465;28;20040;-67
2023/09/20 04:14:31;;;;;;;8.33;3.83;;;;;;;13.66;100.00;100105.47;5051681;28;20079;-67
2023/09/20 04:16:56;;;;;;;8.50;4.13;;;;;;;13.65;100.00;100109.19;5053448;28;20025;-67
2023/09/20 04:19:22;;;;;;;9.87;4.13;;;;;;;13.62;100.00;100098.88;5051122;28;20071;-67
2023/09/20 04:21:48;;;;;;;7.57;4.10;;;;;;;13.50;100.00;100074.50;5051627;28;20132;-69
2023/09/20 04:24:16;;;;;;;6.93;4.40;;;;;;;13.65;100.00;100093.13;5051004;28;20036;-70
2023/09/20 04:26:41;;;;;;;7.55;3.45;;;;;;;13.71;100.00;100102.19;5051865;28;20115;-68
2023/09/20 04:29:07;;;;;;;7.23;3.37;;;;;;;13.56;100.00;100067.53;5051570;28;20052;-69
2023/09/20 04:31:33;;;;;;;13.03;4.30;;;;;;;13.63;100.00;100063.88;5051326;28;20406;-67
2023/09/20 04:34:00;;;;;;;6.50;3.43;;;;;;;13.82;100.00;100091.72;5051677;28;20041;-72
2023/09/20 04:36:27;;;;;;;9.90;4.10;;;;;;;13.85;100.00;100083.31;5051800;28;20037;-69
2023/09/20 04:38:53;;;;;;;7.73;3.33;;;;;;;13.77;100.00;100072.78;5051380;28;20478;-72
2023/09/20 04:41:18;;;;;;;6.83;4.60;;;;;;;13.87;100.00;100086.59;5051453;28;20021;-71
2023/09/20 04:43:44;;;;;;;5.97;3.77;;;;;;;13.87;100.00;100077.75;5053265;28;20033;-69
2023/09/20 04:46:10;;;;;;;6.47;4.17;;;;;;;13.84;100.00;100076.31;5054892;28;20063;-70
2023/09/20 04:48:39;;;;;;;5.17;3.50;;;;;;;13.83;100.00;100074.66;5054814;28;20466;-70
2023/09/20 04:51:05;;;;;;;7.80;4.03;;;;;;;13.85;100.00;100072.59;5054893;28;20025;-71
2023/09/20 04:53:33;;;;;;;6.30;4.10;;;;;;;13.84;100.00;100067.44;5053973;28;20079;-70
2023/09/20 04:55:59;;;;;;;7.78;3.55;;;;;;;13.72;100.00;100043.13;5055056;28;20023;-72
2023/09/20 04:58:25;;;;;;;10.87;7.57;;;;;;;13.52;100.00;100010.94;5054957;28;20368;-70
2023/09/20 05:00:54;;;;;;;7.13;4.13;;;;;;;13.68;100.00;100038.38;5053084;28;20021;-69
2023/09/20 05:03:23;;;;;;;5.57;3.33;;;;;;;13.78;100.00;100052.19;5054129;28;20025;-70
2023/09/20 05:05:50;;;;;;;7.50;3.73;;;;;;;13.72;100.00;100040.44;5052870;28;20048;-70
2023/09/20 05:08:22;;;;;;;9.70;4.30;;;;;;;13.84;100.00;100057.56;5054168;28;20060;-72
2023/09/20 05:10:51;;;;;;;9.33;4.80;;;;;;;13.77;100.00;100019.25;5036343;28;20032;-71
2023/09/20 05:13:17;;;;;;;11.88;5.28;;;;;;;13.88;100.00;100013.34;5051372;28;20029;-71
2023/09/20 05:15:42;;;;;;;7.17;4.53;;;;;;;14.08;100.00;100025.91;5054411;28;20041;-68
2023/09/20 05:18:08;;;;;;;9.03;4.27;;;;;;;13.97;100.00;100007.78;5054242;28;20029;-71
2023/09/20 05:20:35;;;;;;;8.10;4.23;;;;;;;14.10;100.00;100031.91;5053811;28;20060;-74
2023/09/20 05:23:03;;;;;;;7.97;4.07;;;;;;;14.08;100.00;100023.25;5032850;28;20124;-69
2023/09/20 05:25:28;;;;;;;9.02;3.90;;;;;;;13.69;100.00;99970.47;5035331;28;20549;-70
2023/09/20 05:27:54;;;;;;;8.27;3.67;;;;;;;14.21;100.00;100034.81;5056290;28;20060;-72
2023/09/20 05:30:21;;;;;;;8.10;4.73;;;;;;;14.25;100.00;100037.91;5055175;28;20033;-71
2023/09/20 05:32:51;;;;;;;10.17;4.47;;;;;;;13.88;100.00;99981.22;5054511;28;20175;-70
2023/09/20 05:35:19;;;;;;;12.57;4.30;;;;;;;14.20;100.00;100021.63;5053952;28;20037;-73
2023/09/20 05:37:48;;;;;;;8.75;4.25;;;;;;;14.28;100.00;100029.47;5054509;28;20128;-73
2023/09/20 05:40:17;;;;;;;8.27;4.00;;;;;;;14.30;100.00;100030.09;5054024;28;20033;-72
2023/09/20 05:42:50;;;;;;;12.67;5.27;;;;;;;14.31;100.00;100034.41;5053928;28;20483;-71
2023/09/20 05:45:19;;;;;;;14.53;5.97;;;;;;;14.43;100.00;100050.72;5054444;28;20044;-71
2023/09/20 05:47:45;;;;;;;9.55;3.42;;;;;;;14.44;100.00;100058.56;5052789;28;20115;-70
2023/09/20 05:50:12;;;;;;;12.73;4.80;;;;;;;14.54;100.00;100056.31;5057253;28;20052;-69
2023/09/20 05:52:45;;;;;;;6.57;4.07;;;;;;;14.62;100.00;100051.78;5059387;28;20029;-73
2023/09/20 05:55:13;;;;;;;7.97;4.03;;;;;;;14.59;100.00;100028.06;5055756;28;20029;-69
2023/09/20 05:57:43;;;;;;;5.95;3.47;;;;;;;14.51;100.00;100002.31;5056346;28;20040;-70
2023/09/20 06:00:22;;;;;;;9.23;4.97;;;;;;;14.06;100.00;99929.75;5053845;28;20135;-70
2023/09/20 06:02:51;;;;;;;16.30;4.17;;;;;;;14.55;100.00;100025.81;5053652;28;20464;-70
2023/09/20 06:05:19;;;;;;;5.90;4.80;;;;;;;14.52;100.00;100036.13;5053220;28;20033;-70
2023/09/20 06:07:45;;;;;;;12.90;4.40;;;;;;;14.40;100.00;100019.78;5053193;28;20026;-71
2023/09/20 06:10:12;;;;;;;7.40;4.00;;;;;;;14.40;100.00;100033.16;5053362;28;20039;-70
2023/09/20 06:12:38;;;;;;;7.60;3.80;;;;;;;14.40;100.00;100054.59;5053455;28;20456;-69
2023/09/20 06:15:07;;;;;;;8.47;4.47;;;;;;;14.41;100.00;100047.38;5053284;28;20376;-70
2023/09/20 06:17:33;;;;;;;9.40;4.73;;;;;;;14.46;100.00;100056.53;5053145;28;20126;-68
2023/09/20 06:20:07;;;;;;;8.27;3.90;;;;;;;14.51;100.00;100013.03;5053046;28;20029;-69
2023/09/20 06:22:33;;;;;;;7.93;3.93;;;;;;;14.98;100.00;100068.25;5052923;28;20033;-69
2023/09/20 06:24:59;;;;;;;7.97;3.73;;;;;;;15.01;100.00;100067.00;5051966;28;20028;-68
2023/09/20 06:27:33;;;;;;;7.53;3.83;;;;;;;15.06;100.00;100075.28;5050749;28;20029;-72
2023/09/20 06:30:05;;;;;;;6.70;3.43;;;;;;;15.07;100.00;100077.75;5051397;28;20116;-71
2023/09/20 06:32:35;;;;;;;5.87;4.00;;;;;;;15.05;100.00;100063.72;5050961;28;20048;-71
2023/09/20 06:35:05;;;;;;;10.93;4.10;;;;;;;14.95;100.00;100052.56;5049644;28;20051;-70
2023/09/20 06:37:33;;;;;;;11.10;3.50;;;;;;;15.10;100.00;100071.13;5052019;28;20053;-69
2023/09/20 06:40:00;;;;;;;4.90;3.25;;;;;;;15.03;100.00;100049.66;5052454;28;20025;-71
2023/09/20 06:42:29;;;;;;;10.77;3.93;;;;;;;15.02;100.00;100026.56;5052760;28;20037;-70
2023/09/20 06:44:55;;;;;;;8.73;3.23;;;;;;;15.18;100.00;100054.81;5051301;28;20025;-70
2023/09/20 06:47:24;;;;;;;9.10;4.00;;;;;;;15.05;100.00;100025.34;5052250;28;20419;-71
2023/09/20 06:49:50;;;;;;;;;;;;;;;15.36;100.00;100056.84;5053015;28;20032;-69
2023/09/20 06:52:15;;;;;;;6.50;3.70;;;;;;;15.35;100.00;100052.50;5052471;28;19908;-69
2023/09/20 06:54:41;;;;;;;7.07;3.33;;;;;;;15.28;100.00;100025.69;5052514;28;20410;-69
2023/09/20 06:57:07;;;;;;;11.83;2.90;;;;;;;15.36;100.00;100054.16;5052809;28;20056;-69
2023/09/20 06:59:34;;;;;;;8.50;3.70;;;;;;;15.44;100.00;100051.25;5052422;28;20028;-70
2023/09/20 07:02:00;;;;;;;5.23;3.17;;;;;;;15.50;100.00;100050.38;5053073;28;20488;-69
2023/09/20 07:04:26;;;;;;;10.53;3.73;;;;;;;15.64;100.00;100059.25;5053637;28;20117;-69
2023/09/20 07:07:00;;;;;;;6.80;2.77;;;;;;;15.73;100.00;100045.38;5051909;28;20029;-71
2023/09/20 07:09:26;;;;;;;9.13;3.57;;;;;;;15.91;100.00;100059.97;5052330;28;20401;-71
2023/09/20 07:11:53;;;;;;;9.23;3.50;;;;;;;15.93;100.00;100061.41;5052147;28;20029;-69
2023/09/20 07:14:20;;;;;;;9.03;3.80;;;;;;;15.89;100.00;100052.09;5058774;28;20028;-69
2023/09/20 07:16:52;;;;;;;14.43;3.85;;;;;;;15.80;100.00;100056.91;5063928;28;20024;-70
2023/09/20 07:19:23;;;;;;;10.73;3.53;;;;;;;15.47;100.00;100021.28;5055364;28;20043;-73
2023/09/20 07:21:50;;;;;;;6.10;3.60;;;;;;;15.71;100.00;100085.03;5052310;28;20025;-70
2023/09/20 07:24:16;;;;;;;6.03;3.53;;;;;;;15.62;100.00;100070.22;5052444;28;20025;-73
2023/09/20 07:26:43;;;;;;;9.27;3.50;;;;;;;15.74;100.00;100078.41;5034428;28;20025;-71
2023/09/20 07:29:12;;;;;;;5.13;2.90;;;;;;;15.88;100.00;100079.16;5052009;28;20404;-71
2023/09/20 07:31:40;;;;;;;7.20;3.63;;;;;;;15.94;100.00;100072.97;5051657;28;20135;-70
2023/09/20 07:34:13;;;;;;;6.05;2.60;;;;;;;16.12;100.00;100083.81;5052168;28;20423;-73
2023/09/20 07:36:49;;;;;;;11.43;3.20;;;;;;;16.13;99.60;100060.44;5051670;28;20025;-67
2023/09/20 07:39:18;;;;;;;6.33;3.60;;;;;;;16.21;98.71;100063.72;5052029;28;20107;-72
2023/09/20 07:41:52;;;;;;;8.67;3.13;;;;;;;16.35;98.17;100070.63;5052017;28;20036;-77
2023/09/20 07:44:24;;;;;;;5.30;2.70;;;;;;;16.31;98.13;100071.28;5051934;28;20322;-72
2023/09/20 07:46:54;;;;;;;5.20;2.63;;;;;;;16.16;98.34;100063.53;5051651;28;20052;-72
2023/09/20 07:49:28;;;;;;;5.57;3.03;;;;;;;15.72;98.50;99990.03;5050630;28;20135;-73
2023/09/20 07:51:57;;;;;;;8.53;2.40;;;;;;;16.05;99.45;100059.66;5034449;28;20123;-75
2023/09/20 07:54:22;;;;;;;5.68;2.90;;;;;;;16.02;100.00;100062.78;5052089;28;20056;-75
2023/09/20 07:56:52;;;;;;;4.90;2.93;;;;;;;16.00;100.00;100089.03;5051836;28;20120;-74
2023/09/20 07:59:24;;;;;;;9.90;3.37;;;;;;;16.01;100.00;100089.84;5052062;28;20116;-74
2023/09/20 08:01:52;;;;;;;6.03;2.50;;;;;;;15.84;100.00;100051.91;5050823;28;20055;-73
2023/09/20 08:04:18;;;;;;;6.30;3.60;;;;;;;15.96;100.00;100071.72;5052001;28;20029;-72
2023/09/20 08:06:44;;;;;;;7.73;3.20;;;;;;;15.95;100.00;100051.25;5052075;28;20033;-74
2023/09/20 08:09:09;;;;;;;7.10;2.97;;;;;;;15.98;100.00;100082.22;5050802;28;20110;-71
2023/09/20 08:11:35;;;;;;;10.10;3.50;;;;;;;15.95;100.00;100085.34;5051524;28;20025;-72
2023/09/20 08:14:08;;;;;;;4.37;2.87;;;;;;;15.93;100.00;100071.31;5051755;28;20083;-72
2023/09/20 08:16:35;;;;;;;7.43;3.10;;;;;;;16.01;100.00;100073.75;5051881;28;20016;-69
2023/09/20 08:21:44;;;;;;;5.07;2.20;;;;;;;15.94;100.00;100089.91;5056086;28;20040;-71
2023/09/20 09:00:25;;;;;;;7.97;2.37;;;;;;;16.03;100.00;100109.25;5053355;28;20025;-70
2023/09/20 09:02:53;;;;;;;8.87;3.40;;;;;;;16.14;100.00;100111.25;5054886;28;20037;-70
2023/09/20 09:05:21;;;;;;;9.10;3.78;;;;;;;16.18;100.00;100117.84;5054818;28;20033;-68
2023/09/20 09:07:48;;;;;;;5.97;3.22;;;;;;;16.12;100.00;100091.84;5056974;28;20067;-70
2023/09/20 09:10:13;;;;;;;4.93;2.47;;;;;;;16.00;100.00;100074.78;5058538;28;20029;-70
2023/09/20 09:12:41;;;;;;;12.33;3.60;;;;;;;16.11;100.00;100095.59;5056680;28;20030;-68
2023/09/20 09:15:10;;;;;;;8.17;3.93;;;;;;;16.12;100.00;100097.22;5055617;28;20031;-69
2023/09/20 09:17:43;;;;;;;10.50;3.30;;;;;;;16.41;100.00;100102.03;5054066;28;20048;-67
2023/09/20 09:20:11;;;;;;;7.37;2.83;;;;;;;16.47;100.00;100110.25;5055312;28;20033;-68
2023/09/20 09:22:41;;;;;;;8.98;3.10;;;;;;;16.58;100.00;100101.50;5057157;28;20029;-70
2023/09/20 09:25:16;;;;;;;6.27;2.63;;;;;;;16.51;100.00;100092.66;5054107;28;20473;-71
2023/09/20 09:27:43;;;;;;;7.90;3.07;;;;;;;16.61;100.00;100109.13;5054590;28;20025;-70
2023/09/20 09:30:15;;;;;;;7.03;2.83;;;;;;;16.55;99.68;100118.91;5054023;28;20547;-71
2023/09/20 09:32:43;;;;;;;10.20;3.08;;;;;;;16.53;100.00;100136.28;5057248;28;20048;-70
2023/09/20 09:35:09;;;;;;;6.78;2.70;;;;;;;16.30;100.00;100105.41;5056176;28;20044;-69
2023/09/20 09:37:36;;;;;;;8.57;2.73;;;;;;;16.41;100.00;100131.56;5055604;28;20082;-69
2023/09/20 09:40:05;;;;;;;8.93;3.20;;;;;;;16.48;100.00;100136.09;5055486;28;20536;-69
2023/09/20 09:42:31;;;;;;;5.97;2.60;;;;;;;16.59;100.00;100127.34;5055928;28;20083;-69
2023/09/20 09:44:58;;;;;;;7.40;2.83;;;;;;;16.66;100.00;100130.84;5056180;28;20025;-68
2023/09/20 09:47:25;;;;;;;5.35;3.10;;;;;;;16.68;100.00;100129.56;5056322;28;20045;-70
2023/09/20 09:49:53;;;;;;;5.00;2.95;;;;;;;16.60;100.00;100107.50;5055386;28;20025;-68
2023/09/20 09:52:24;;;;;;;7.17;2.40;;;;;;;16.62;100.00;100124.22;5058433;28;20032;-72
2023/09/20 09:54:51;;;;;;;5.17;2.73;;;;;;;16.63;100.00;100109.75;5060286;28;20053;-69
2023/09/20 09:57:20;;;;;;;11.70;3.15;;;;;;;16.73;100.00;100112.78;5064128;28;20025;-70
2023/09/20 09:59:49;;;;;;;;;;;;;;;16.87;100.00;100117.03;5072486;28;20028;-71
2023/09/20 10:02:21;;;;;;;5.93;2.67;;;;;;;16.92;99.72;100111.81;5053935;28;19997;-67
2023/09/20 10:05:00;;;;;;;7.70;3.00;;;;;;;16.87;99.18;100092.81;5053527;28;20025;-70
2023/09/20 10:07:35;;;;;;;3.95;2.38;;;;;;;16.80;99.23;100064.34;5052299;28;20107;-69
2023/09/20 10:10:08;;;;;;;4.65;2.58;;;;;;;17.00;99.23;100116.91;5053866;28;20024;-70
2023/09/20 10:12:36;;;;;;;7.90;3.05;;;;;;;17.01;100.00;100123.94;5053574;28;20535;-68
2023/09/20 10:15:07;;;;;;;4.55;2.80;;;;;;;16.98;100.00;100118.19;5053551;28;20472;-72
2023/09/20 10:17:34;;;;;;;8.23;2.28;;;;;;;16.86;99.53;100107.31;5053274;28;20040;-68
2023/09/20 10:20:07;;;;;;;7.23;3.70;;;;;;;16.94;100.00;100119.66;5052912;28;20029;-69
2023/09/20 10:22:36;;;;;;;7.45;3.17;;;;;;;16.75;99.91;100081.13;5053506;28;20033;-71
2023/09/20 10:25:01;;;;;;;8.35;2.72;;;;;;;16.97;100.00;100135.38;5052943;28;20128;-70
2023/09/20 10:27:31;;;;;;;6.90;3.83;;;;;;;16.96;100.00;100131.84;5053453;28;20116;-69
2023/09/20 10:30:09;;;;;;;5.23;3.03;;;;;;;16.15;100.00;100000.09;5060525;28;20099;-71
2023/09/20 10:32:47;;;;;;;8.75;2.80;;;;;;;17.02;100.00;100133.66;5052313;28;20073;-67
2023/09/20 10:35:23;;;;;;;9.55;2.88;;;;;;;17.01;100.00;100129.31;5051940;28;20464;-72
2023/09/20 10:38:20;;;;;;;7.10;2.10;;;;;;;17.04;100.00;100131.56;5053469;28;20033;-68
2023/09/20 10:40:50;;;;;;;5.10;2.25;;;;;;;17.04;100.00;100147.72;5052150;28;20044;-69
2023/09/20 10:43:25;;;;;;;8.68;5.72;;;;;;;17.04;100.00;100131.56;5051974;28;20063;-68
2023/09/20 10:45:53;;;;;;;9.15;2.40;;;;;;;17.09;100.00;100147.06;5055558;28;20032;-67
2023/09/20 10:48:23;;;;;;;8.65;3.08;;;;;;;17.09;100.00;100135.50;5054278;28;20052;-72
2023/09/20 10:51:03;;;;;;;5.68;3.05;;;;;;;17.20;100.00;100134.75;5056128;28;20098;-71
2023/09/20 10:53:47;;;;;;;10.60;2.47;;;;;;;17.29;99.51;100147.69;5035043;28;20029;-69
2023/09/20 10:56:53;;;;;;;4.78;2.10;;;;;;;17.44;98.64;100133.91;5052704;28;20033;-68
2023/09/20 10:59:24;;;;;;;5.07;3.10;;;;;;;17.52;98.55;100138.16;5051250;28;20037;-68
2023/09/20 11:01:51;;;;;;;9.40;2.78;;;;;;;17.29;97.96;100087.66;5052641;28;20378;-68
2023/09/20 11:04:20;;;;;;;7.00;3.05;;;;;;;17.45;97.80;100127.47;5052525;28;20365;-70
2023/09/20 11:06:50;;;;;;;6.25;2.58;;;;;;;17.53;98.02;100153.28;5052939;28;20465;-68
2023/09/20 11:09:15;;;;;;;6.03;2.05;;;;;;;17.32;98.74;100119.50;5052481;28;20037;-69
2023/09/20 11:11:43;;;;;;;3.75;2.28;;;;;;;17.40;98.68;100151.56;5050758;28;20036;-70
2023/09/20 11:14:09;;;;;;;4.05;2.25;;;;;;;17.33;99.64;100142.69;5052448;28;20037;-70
2023/09/20 11:16:36;;;;;;;7.13;2.85;;;;;;;17.22;99.22;100124.59;5051623;28;20032;-72
2023/09/20 11:19:03;;;;;;;6.57;2.72;;;;;;;17.28;99.29;100143.38;5051251;28;20025;-67
2023/09/20 11:21:28;;;;;;;7.65;2.58;;;;;;;17.36;99.47;100131.50;5052326;28;20062;-70
2023/09/20 11:23:54;;;;;;;3.33;2.28;;;;;;;17.45;98.26;100135.56;5052156;28;20020;-71
2023/09/20 11:26:29;;;;;;;5.85;2.08;;;;;;;17.54;98.31;100138.75;5050987;28;20021;-72
2023/09/20 11:28:56;;;;;;;4.18;2.47;;;;;;;17.53;98.25;100132.56;5052418;28;20067;-70
2023/09/20 11:31:29;;;;;;;5.18;2.42;;;;;;;17.66;97.43;100153.16;5051954;28;20037;-70
2023/09/20 11:34:05;;;;;;;4.78;2.08;;;;;;;17.45;97.47;100130.16;5051875;28;20036;-68
2023/09/20 11:36:44;;;;;;;6.28;2.33;;;;;;;17.50;97.37;100140.25;5052216;28;20025;-70
2023/09/20 11:39:14;;;;;;;4.70;2.03;;;;;;;17.55;97.58;100146.63;5052048;28;20090;-71
2023/09/20 11:41:46;;;;;;;4.78;2.80;;;;;;;17.35;97.51;100111.03;5052158;28;20473;-68
2023/09/20 11:44:12;;;;;;;8.15;2.80;;;;;;;17.61;97.77;100153.81;5050861;28;20025;-71
2023/09/20 11:46:38;;;;;;;4.47;2.08;;;;;;;17.52;97.96;100149.75;5050591;28;20033;-68
2023/09/20 11:49:05;;;;;;;6.47;2.60;;;;;;;17.44;98.23;100150.06;5052415;28;20368;-68
2023/09/20 11:51:39;;;;;;;9.30;2.25;;;;;;;17.39;98.01;100141.84;5051721;28;20033;-71
2023/09/20 11:54:10;;;;;;;6.05;3.08;;;;;;;17.42;98.29;100160.22;5056085;28;20025;-69
2023/09/20 11:56:37;;;;;;;11.27;2.22;;;;;;;17.43;98.69;100159.19;5054841;28;20371;-70
2023/09/20 11:59:09;;;;;;;5.65;2.42;;;;;;;17.46;99.34;100161.44;5055948;28;20094;-70
2023/09/20 12:01:41;;;;;;;5.72;3.33;;;;;;;17.43;98.93;100148.41;5054595;28;20021;-72